sensor_id;sensor_type;location;lat;lon;timestamp;P1;durP1;ratioP1;P2;durP2;ratioP2
44774;SDS011;31340;51.402;0.016;2023-01-01T00:01:49;11.25;;;2.25;;
44774;SDS011;31340;51.402;0.016;2023-01-01T00:04:16;22.48;;;4.75;;
44774;SDS011;31340;51.402;0.016;2023-01-01T00:06:44;25.42;;;8.43;;
44774;SDS011;31340;51.402;0.016;2023-01-01T00:09:12;30.08;;;11.55;;
44774;SDS011;31340;51.402;0.016;2023-01-01T00:11:58;19.35;;;5.20;;
44774;SDS011;31340;51.402;0.016;2023-01-01T00:14:25;14.50;;;2.80;;
44774;SDS011;31340;51.402;0.016;2023-01-01T00:16:55;10.82;;;2.30;;
44774;SDS011;31340;51.402;0.016;2023-01-01T00:19:23;16.00;;;2.78;;
44774;SDS011;31340;51.402;0.016;2023-01-01T00:21:50;11.38;;;2.65;;
44774;SDS011;31340;51.402;0.016;2023-01-01T00:24:19;17.20;;;3.50;;
44774;SDS011;31340;51.402;0.016;2023-01-01T00:26:47;10.57;;;2.38;;
44774;SDS011;31340;51.402;0.016;2023-01-01T00:29:14;14.93;;;2.83;;
44774;SDS011;31340;51.402;0.016;2023-01-01T00:31:42;10.57;;;2.10;;
44774;SDS011;31340;51.402;0.016;2023-01-01T00:34:11;13.20;;;3.22;;
44774;SDS011;31340;51.402;0.016;2023-01-01T00:36:39;21.73;;;3.83;;
44774;SDS011;31340;51.402;0.016;2023-01-01T00:39:07;9.82;;;2.78;;
44774;SDS011;31340;51.402;0.016;2023-01-01T00:41:34;19.77;;;4.47;;
44774;SDS011;31340;51.402;0.016;2023-01-01T00:44:02;11.43;;;2.95;;
44774;SDS011;31340;51.402;0.016;2023-01-01T00:46:30;10.82;;;2.50;;
44774;SDS011;31340;51.402;0.016;2023-01-01T00:48:57;13.32;;;2.72;;
44774;SDS011;31340;51.402;0.016;2023-01-01T00:51:25;17.85;;;2.40;;
44774;SDS011;31340;51.402;0.016;2023-01-01T00:53:58;12.88;;;2.85;;
44774;SDS011;31340;51.402;0.016;2023-01-01T00:56:26;16.27;;;2.88;;
44774;SDS011;31340;51.402;0.016;2023-01-01T00:58:54;17.55;;;2.78;;
44774;SDS011;31340;51.402;0.016;2023-01-01T01:01:27;18.15;;;2.92;;
44774;SDS011;31340;51.402;0.016;2023-01-01T01:03:55;12.52;;;2.40;;
44774;SDS011;31340;51.402;0.016;2023-01-01T01:06:23;12.75;;;1.90;;
44774;SDS011;31340;51.402;0.016;2023-01-01T01:08:50;12.38;;;2.70;;
44774;SDS011;31340;51.402;0.016;2023-01-01T01:11:19;21.02;;;2.95;;
44774;SDS011;31340;51.402;0.016;2023-01-01T01:13:49;16.73;;;2.88;;
44774;SDS011;31340;51.402;0.016;2023-01-01T01:18:49;13.80;;;2.10;;
44774;SDS011;31340;51.402;0.016;2023-01-01T01:21:18;14.98;;;2.58;;
44774;SDS011;31340;51.402;0.016;2023-01-01T01:23:47;14.23;;;2.38;;
44774;SDS011;31340;51.402;0.016;2023-01-01T01:26:18;19.40;;;2.92;;
44774;SDS011;31340;51.402;0.016;2023-01-01T01:28:47;14.82;;;2.55;;
44774;SDS011;31340;51.402;0.016;2023-01-01T01:31:16;13.18;;;2.35;;
44774;SDS011;31340;51.402;0.016;2023-01-01T01:33:45;25.52;;;3.67;;
44774;SDS011;31340;51.402;0.016;2023-01-01T01:36:14;18.10;;;2.67;;
44774;SDS011;31340;51.402;0.016;2023-01-01T01:38:42;17.23;;;3.15;;
44774;SDS011;31340;51.402;0.016;2023-01-01T01:41:14;18.23;;;2.92;;
44774;SDS011;31340;51.402;0.016;2023-01-01T01:46:31;16.92;;;2.95;;
44774;SDS011;31340;51.402;0.016;2023-01-01T01:49:20;18.88;;;2.50;;
44774;SDS011;31340;51.402;0.016;2023-01-01T01:51:53;21.05;;;3.25;;
44774;SDS011;31340;51.402;0.016;2023-01-01T01:54:23;18.88;;;3.20;;
44774;SDS011;31340;51.402;0.016;2023-01-01T01:57:01;18.70;;;3.33;;
44774;SDS011;31340;51.402;0.016;2023-01-01T01:59:32;20.58;;;2.80;;
44774;SDS011;31340;51.402;0.016;2023-01-01T02:02:05;20.65;;;3.55;;
44774;SDS011;31340;51.402;0.016;2023-01-01T02:04:39;21.10;;;3.05;;
44774;SDS011;31340;51.402;0.016;2023-01-01T02:07:08;18.10;;;3.65;;
44774;SDS011;31340;51.402;0.016;2023-01-01T02:09:36;14.75;;;3.53;;
44774;SDS011;31340;51.402;0.016;2023-01-01T02:12:03;23.33;;;3.25;;
44774;SDS011;31340;51.402;0.016;2023-01-01T02:14:31;13.48;;;3.33;;
44774;SDS011;31340;51.402;0.016;2023-01-01T02:17:02;20.20;;;4.18;;
44774;SDS011;31340;51.402;0.016;2023-01-01T02:19:54;16.98;;;3.05;;
44774;SDS011;31340;51.402;0.016;2023-01-01T02:28:00;16.70;;;3.55;;
44774;SDS011;31340;51.402;0.016;2023-01-01T02:30:44;22.38;;;3.65;;
44774;SDS011;31340;51.402;0.016;2023-01-01T02:33:16;16.90;;;3.75;;
44774;SDS011;31340;51.402;0.016;2023-01-01T02:35:49;24.10;;;3.38;;
44774;SDS011;31340;51.402;0.016;2023-01-01T02:38:25;21.33;;;2.88;;
44774;SDS011;31340;51.402;0.016;2023-01-01T02:41:09;18.48;;;3.78;;
44774;SDS011;31340;51.402;0.016;2023-01-01T02:43:40;25.60;;;3.85;;
44774;SDS011;31340;51.402;0.016;2023-01-01T02:46:09;17.77;;;3.25;;
44774;SDS011;31340;51.402;0.016;2023-01-01T02:48:46;21.42;;;3.10;;
44774;SDS011;31340;51.402;0.016;2023-01-01T03:10:26;27.50;;;3.65;;
44774;SDS011;31340;51.402;0.016;2023-01-01T03:13:18;26.48;;;3.75;;
44774;SDS011;31340;51.402;0.016;2023-01-01T03:16:02;20.75;;;3.58;;
44774;SDS011;31340;51.402;0.016;2023-01-01T03:21:09;20.15;;;3.78;;
44774;SDS011;31340;51.402;0.016;2023-01-01T03:23:41;22.73;;;3.15;;
44774;SDS011;31340;51.402;0.016;2023-01-01T03:26:16;28.90;;;4.07;;
44774;SDS011;31340;51.402;0.016;2023-01-01T03:28:51;26.00;;;4.32;;
44774;SDS011;31340;51.402;0.016;2023-01-01T03:31:22;32.60;;;4.45;;
44774;SDS011;31340;51.402;0.016;2023-01-01T03:34:02;30.20;;;4.77;;
44774;SDS011;31340;51.402;0.016;2023-01-01T03:36:34;31.60;;;4.10;;
44774;SDS011;31340;51.402;0.016;2023-01-01T03:39:05;30.90;;;4.63;;
44774;SDS011;31340;51.402;0.016;2023-01-01T03:41:42;34.55;;;6.28;;
44774;SDS011;31340;51.402;0.016;2023-01-01T03:46:49;29.58;;;4.70;;
44774;SDS011;31340;51.402;0.016;2023-01-01T03:49:17;32.30;;;4.78;;
44774;SDS011;31340;51.402;0.016;2023-01-01T04:05:38;25.48;;;3.92;;
44774;SDS011;31340;51.402;0.016;2023-01-01T04:08:07;28.17;;;4.20;;
44774;SDS011;31340;51.402;0.016;2023-01-01T04:10:37;30.50;;;4.47;;
44774;SDS011;31340;51.402;0.016;2023-01-01T04:13:08;23.80;;;4.35;;
44774;SDS011;31340;51.402;0.016;2023-01-01T04:15:36;26.13;;;4.35;;
44774;SDS011;31340;51.402;0.016;2023-01-01T04:18:03;22.75;;;3.85;;
44774;SDS011;31340;51.402;0.016;2023-01-01T04:20:31;31.48;;;4.47;;
44774;SDS011;31340;51.402;0.016;2023-01-01T04:22:59;27.73;;;3.67;;
44774;SDS011;31340;51.402;0.016;2023-01-01T04:25:27;41.22;;;5.03;;
44774;SDS011;31340;51.402;0.016;2023-01-01T04:27:55;24.08;;;4.60;;
44774;SDS011;31340;51.402;0.016;2023-01-01T04:30:29;24.98;;;4.30;;
44774;SDS011;31340;51.402;0.016;2023-01-01T04:32:56;29.27;;;4.78;;
44774;SDS011;31340;51.402;0.016;2023-01-01T04:35:24;32.28;;;4.25;;
44774;SDS011;31340;51.402;0.016;2023-01-01T04:37:51;27.77;;;4.28;;
44774;SDS011;31340;51.402;0.016;2023-01-01T04:40:19;34.08;;;6.25;;
44774;SDS011;31340;51.402;0.016;2023-01-01T04:42:47;37.08;;;4.40;;
44774;SDS011;31340;51.402;0.016;2023-01-01T04:45:14;34.97;;;4.93;;
44774;SDS011;31340;51.402;0.016;2023-01-01T04:47:42;39.25;;;4.90;;
44774;SDS011;31340;51.402;0.016;2023-01-01T04:50:09;33.45;;;4.68;;
44774;SDS011;31340;51.402;0.016;2023-01-01T04:52:37;31.73;;;5.10;;
44774;SDS011;31340;51.402;0.016;2023-01-01T04:55:04;37.15;;;4.80;;
44774;SDS011;31340;51.402;0.016;2023-01-01T04:57:32;36.88;;;5.32;;
44774;SDS011;31340;51.402;0.016;2023-01-01T05:00:00;34.95;;;5.40;;
44774;SDS011;31340;51.402;0.016;2023-01-01T05:02:27;36.38;;;5.57;;
44774;SDS011;31340;51.402;0.016;2023-01-01T05:04:55;28.02;;;4.75;;
44774;SDS011;31340;51.402;0.016;2023-01-01T05:07:22;44.78;;;6.18;;
44774;SDS011;31340;51.402;0.016;2023-01-01T05:09:50;37.15;;;5.45;;
44774;SDS011;31340;51.402;0.016;2023-01-01T05:12:17;36.58;;;5.25;;
44774;SDS011;31340;51.402;0.016;2023-01-01T05:14:45;31.00;;;5.13;;
44774;SDS011;31340;51.402;0.016;2023-01-01T05:17:12;29.95;;;4.97;;
44774;SDS011;31340;51.402;0.016;2023-01-01T05:19:40;22.85;;;3.72;;
44774;SDS011;31340;51.402;0.016;2023-01-01T05:22:08;44.28;;;6.13;;
44774;SDS011;31340;51.402;0.016;2023-01-01T05:24:37;31.95;;;4.70;;
44774;SDS011;31340;51.402;0.016;2023-01-01T05:27:04;45.30;;;5.20;;
44774;SDS011;31340;51.402;0.016;2023-01-01T05:29:32;36.28;;;5.43;;
44774;SDS011;31340;51.402;0.016;2023-01-01T05:31:59;46.20;;;6.18;;
44774;SDS011;31340;51.402;0.016;2023-01-01T05:34:27;40.10;;;5.75;;
44774;SDS011;31340;51.402;0.016;2023-01-01T05:36:56;38.45;;;5.05;;
44774;SDS011;31340;51.402;0.016;2023-01-01T05:39:24;43.95;;;5.82;;
44774;SDS011;31340;51.402;0.016;2023-01-01T05:41:52;35.45;;;5.45;;
44774;SDS011;31340;51.402;0.016;2023-01-01T05:44:19;41.45;;;5.25;;
44774;SDS011;31340;51.402;0.016;2023-01-01T05:46:47;35.78;;;5.03;;
44774;SDS011;31340;51.402;0.016;2023-01-01T05:49:14;35.85;;;5.18;;
44774;SDS011;31340;51.402;0.016;2023-01-01T05:51:42;28.23;;;4.50;;
44774;SDS011;31340;51.402;0.016;2023-01-01T05:54:10;30.38;;;4.40;;
44774;SDS011;31340;51.402;0.016;2023-01-01T05:56:36;38.58;;;6.20;;
44774;SDS011;31340;51.402;0.016;2023-01-01T05:59:03;25.02;;;4.10;;
44774;SDS011;31340;51.402;0.016;2023-01-01T06:01:31;29.77;;;4.70;;
44774;SDS011;31340;51.402;0.016;2023-01-01T06:04:07;34.42;;;5.68;;
44774;SDS011;31340;51.402;0.016;2023-01-01T06:06:35;25.20;;;3.88;;
44774;SDS011;31340;51.402;0.016;2023-01-01T06:09:03;30.00;;;4.13;;
44774;SDS011;31340;51.402;0.016;2023-01-01T06:11:31;36.85;;;4.65;;
44774;SDS011;31340;51.402;0.016;2023-01-01T06:13:59;32.55;;;4.47;;
44774;SDS011;31340;51.402;0.016;2023-01-01T06:16:28;32.75;;;5.28;;
44774;SDS011;31340;51.402;0.016;2023-01-01T06:18:57;29.02;;;4.35;;
44774;SDS011;31340;51.402;0.016;2023-01-01T06:21:25;34.33;;;4.93;;
44774;SDS011;31340;51.402;0.016;2023-01-01T06:23:55;30.13;;;4.75;;
44774;SDS011;31340;51.402;0.016;2023-01-01T06:26:25;32.55;;;4.22;;
44774;SDS011;31340;51.402;0.016;2023-01-01T06:28:55;35.72;;;5.47;;
44774;SDS011;31340;51.402;0.016;2023-01-01T06:31:24;32.05;;;5.00;;
44774;SDS011;31340;51.402;0.016;2023-01-01T06:33:52;57.97;;;5.32;;
44774;SDS011;31340;51.402;0.016;2023-01-01T06:36:20;41.25;;;5.55;;
44774;SDS011;31340;51.402;0.016;2023-01-01T06:38:50;30.88;;;4.93;;
44774;SDS011;31340;51.402;0.016;2023-01-01T06:41:21;42.20;;;5.68;;
44774;SDS011;31340;51.402;0.016;2023-01-01T06:43:50;39.97;;;5.38;;
44774;SDS011;31340;51.402;0.016;2023-01-01T06:46:25;39.13;;;4.57;;
44774;SDS011;31340;51.402;0.016;2023-01-01T06:48:58;32.17;;;5.40;;
44774;SDS011;31340;51.402;0.016;2023-01-01T06:51:28;36.40;;;5.88;;
44774;SDS011;31340;51.402;0.016;2023-01-01T06:53:58;35.70;;;5.38;;
44774;SDS011;31340;51.402;0.016;2023-01-01T06:56:27;37.13;;;4.50;;
44774;SDS011;31340;51.402;0.016;2023-01-01T06:58:55;39.85;;;5.22;;
44774;SDS011;31340;51.402;0.016;2023-01-01T07:01:24;31.90;;;5.43;;
44774;SDS011;31340;51.402;0.016;2023-01-01T07:03:54;38.88;;;5.20;;
44774;SDS011;31340;51.402;0.016;2023-01-01T07:06:24;37.50;;;5.88;;
44774;SDS011;31340;51.402;0.016;2023-01-01T07:08:52;37.28;;;5.88;;
44774;SDS011;31340;51.402;0.016;2023-01-01T07:11:21;33.03;;;4.88;;
44774;SDS011;31340;51.402;0.016;2023-01-01T07:13:49;31.75;;;5.38;;
44774;SDS011;31340;51.402;0.016;2023-01-01T07:16:16;37.47;;;6.53;;
44774;SDS011;31340;51.402;0.016;2023-01-01T07:18:44;39.92;;;6.13;;
44774;SDS011;31340;51.402;0.016;2023-01-01T07:21:37;33.70;;;5.60;;
44774;SDS011;31340;51.402;0.016;2023-01-01T07:24:12;37.03;;;5.60;;
44774;SDS011;31340;51.402;0.016;2023-01-01T07:26:41;33.58;;;5.25;;
44774;SDS011;31340;51.402;0.016;2023-01-01T07:29:10;32.97;;;4.80;;
44774;SDS011;31340;51.402;0.016;2023-01-01T07:31:42;36.50;;;4.57;;
44774;SDS011;31340;51.402;0.016;2023-01-01T07:34:12;34.28;;;5.03;;
44774;SDS011;31340;51.402;0.016;2023-01-01T07:36:41;34.72;;;4.72;;
44774;SDS011;31340;51.402;0.016;2023-01-01T07:39:09;49.67;;;5.80;;
44774;SDS011;31340;51.402;0.016;2023-01-01T07:41:37;32.00;;;4.78;;
44774;SDS011;31340;51.402;0.016;2023-01-01T07:44:05;23.15;;;5.22;;
44774;SDS011;31340;51.402;0.016;2023-01-01T07:46:33;40.97;;;5.68;;
44774;SDS011;31340;51.402;0.016;2023-01-01T07:49:02;38.65;;;5.32;;
44774;SDS011;31340;51.402;0.016;2023-01-01T07:51:30;38.17;;;4.60;;
44774;SDS011;31340;51.402;0.016;2023-01-01T07:53:58;42.55;;;6.60;;
44774;SDS011;31340;51.402;0.016;2023-01-01T07:56:33;39.30;;;5.72;;
44774;SDS011;31340;51.402;0.016;2023-01-01T07:59:01;40.78;;;5.68;;
44774;SDS011;31340;51.402;0.016;2023-01-01T08:01:29;36.88;;;7.55;;
44774;SDS011;31340;51.402;0.016;2023-01-01T08:03:56;44.65;;;5.93;;
44774;SDS011;31340;51.402;0.016;2023-01-01T08:06:24;42.47;;;6.18;;
44774;SDS011;31340;51.402;0.016;2023-01-01T08:08:52;36.80;;;5.88;;
44774;SDS011;31340;51.402;0.016;2023-01-01T08:11:19;32.47;;;5.05;;
44774;SDS011;31340;51.402;0.016;2023-01-01T08:13:47;38.83;;;5.57;;
44774;SDS011;31340;51.402;0.016;2023-01-01T08:16:14;36.08;;;6.38;;
44774;SDS011;31340;51.402;0.016;2023-01-01T08:18:42;41.80;;;5.38;;
44774;SDS011;31340;51.402;0.016;2023-01-01T08:21:09;32.67;;;4.72;;
44774;SDS011;31340;51.402;0.016;2023-01-01T08:23:37;42.28;;;7.63;;
44774;SDS011;31340;51.402;0.016;2023-01-01T08:26:04;39.38;;;6.00;;
44774;SDS011;31340;51.402;0.016;2023-01-01T08:28:32;43.80;;;6.35;;
44774;SDS011;31340;51.402;0.016;2023-01-01T08:30:59;41.50;;;5.05;;
44774;SDS011;31340;51.402;0.016;2023-01-01T08:33:28;45.20;;;7.32;;
44774;SDS011;31340;51.402;0.016;2023-01-01T08:35:55;45.70;;;5.30;;
44774;SDS011;31340;51.402;0.016;2023-01-01T08:38:23;35.53;;;6.07;;
44774;SDS011;31340;51.402;0.016;2023-01-01T08:40:51;42.03;;;6.88;;
44774;SDS011;31340;51.402;0.016;2023-01-01T08:43:19;42.90;;;5.88;;
44774;SDS011;31340;51.402;0.016;2023-01-01T08:45:46;37.28;;;5.63;;
44774;SDS011;31340;51.402;0.016;2023-01-01T08:48:14;47.33;;;6.13;;
44774;SDS011;31340;51.402;0.016;2023-01-01T08:50:41;44.75;;;6.88;;
44774;SDS011;31340;51.402;0.016;2023-01-01T08:53:09;40.90;;;6.07;;
44774;SDS011;31340;51.402;0.016;2023-01-01T08:55:36;45.10;;;5.15;;
44774;SDS011;31340;51.402;0.016;2023-01-01T08:58:04;44.25;;;5.93;;
44774;SDS011;31340;51.402;0.016;2023-01-01T09:00:33;44.50;;;6.45;;
44774;SDS011;31340;51.402;0.016;2023-01-01T09:03:01;33.92;;;5.43;;
44774;SDS011;31340;51.402;0.016;2023-01-01T09:05:29;41.85;;;6.50;;
44774;SDS011;31340;51.402;0.016;2023-01-01T09:07:56;38.13;;;6.13;;
44774;SDS011;31340;51.402;0.016;2023-01-01T09:10:24;40.60;;;6.63;;
44774;SDS011;31340;51.402;0.016;2023-01-01T09:12:51;57.38;;;5.70;;
44774;SDS011;31340;51.402;0.016;2023-01-01T09:15:19;44.40;;;6.18;;
44774;SDS011;31340;51.402;0.016;2023-01-01T09:17:47;44.10;;;5.97;;
44774;SDS011;31340;51.402;0.016;2023-01-01T09:20:14;36.70;;;5.38;;
44774;SDS011;31340;51.402;0.016;2023-01-01T09:22:42;36.97;;;6.20;;
44774;SDS011;31340;51.402;0.016;2023-01-01T09:25:09;41.95;;;6.50;;
44774;SDS011;31340;51.402;0.016;2023-01-01T09:27:37;43.15;;;6.07;;
44774;SDS011;31340;51.402;0.016;2023-01-01T09:30:04;41.38;;;6.68;;
44774;SDS011;31340;51.402;0.016;2023-01-01T09:32:33;44.25;;;7.80;;
44774;SDS011;31340;51.402;0.016;2023-01-01T09:35:00;37.85;;;5.43;;
44774;SDS011;31340;51.402;0.016;2023-01-01T09:37:27;39.88;;;5.90;;
44774;SDS011;31340;51.402;0.016;2023-01-01T09:39:55;35.00;;;6.63;;
44774;SDS011;31340;51.402;0.016;2023-01-01T09:42:35;39.83;;;7.38;;
44774;SDS011;31340;51.402;0.016;2023-01-01T09:47:51;47.47;;;6.68;;
44774;SDS011;31340;51.402;0.016;2023-01-01T09:50:34;44.20;;;6.03;;
44774;SDS011;31340;51.402;0.016;2023-01-01T09:53:14;37.17;;;6.18;;
44774;SDS011;31340;51.402;0.016;2023-01-01T09:55:48;45.75;;;6.60;;
44774;SDS011;31340;51.402;0.016;2023-01-01T09:58:36;53.25;;;6.82;;
44774;SDS011;31340;51.402;0.016;2023-01-01T10:04:27;44.10;;;7.05;;
44774;SDS011;31340;51.402;0.016;2023-01-01T10:15:31;44.78;;;6.10;;
44774;SDS011;31340;51.402;0.016;2023-01-01T10:18:03;45.95;;;6.40;;
44774;SDS011;31340;51.402;0.016;2023-01-01T10:20:36;39.42;;;7.13;;
44774;SDS011;31340;51.402;0.016;2023-01-01T10:23:16;48.00;;;8.07;;
44774;SDS011;31340;51.402;0.016;2023-01-01T10:25:52;35.72;;;5.85;;
44774;SDS011;31340;51.402;0.016;2023-01-01T10:28:24;48.25;;;7.07;;
44774;SDS011;31340;51.402;0.016;2023-01-01T10:31:18;43.42;;;6.30;;
44774;SDS011;31340;51.402;0.016;2023-01-01T10:33:52;43.42;;;6.00;;
44774;SDS011;31340;51.402;0.016;2023-01-01T10:36:20;40.50;;;6.20;;
44774;SDS011;31340;51.402;0.016;2023-01-01T10:38:48;49.70;;;6.60;;
44774;SDS011;31340;51.402;0.016;2023-01-01T10:41:17;40.30;;;5.78;;
44774;SDS011;31340;51.402;0.016;2023-01-01T10:43:47;41.25;;;6.38;;
44774;SDS011;31340;51.402;0.016;2023-01-01T10:46:17;39.90;;;5.93;;
44774;SDS011;31340;51.402;0.016;2023-01-01T10:51:46;44.20;;;6.85;;
44774;SDS011;31340;51.402;0.016;2023-01-01T11:03:10;33.47;;;5.10;;
44774;SDS011;31340;51.402;0.016;2023-01-01T11:08:47;40.03;;;6.40;;
44774;SDS011;31340;51.402;0.016;2023-01-01T11:11:20;39.92;;;6.05;;
44774;SDS011;31340;51.402;0.016;2023-01-01T11:14:02;37.72;;;5.97;;
44774;SDS011;31340;51.402;0.016;2023-01-01T11:16:32;44.55;;;6.13;;
44774;SDS011;31340;51.402;0.016;2023-01-01T11:19:00;39.50;;;5.88;;
44774;SDS011;31340;51.402;0.016;2023-01-01T11:21:32;27.70;;;5.00;;
44774;SDS011;31340;51.402;0.016;2023-01-01T11:26:44;46.22;;;5.85;;
44774;SDS011;31340;51.402;0.016;2023-01-01T11:29:22;43.38;;;5.72;;
44774;SDS011;31340;51.402;0.016;2023-01-01T11:31:52;29.95;;;5.45;;
44774;SDS011;31340;51.402;0.016;2023-01-01T11:39:59;33.75;;;5.60;;
44774;SDS011;31340;51.402;0.016;2023-01-01T11:42:31;34.72;;;7.80;;
44774;SDS011;31340;51.402;0.016;2023-01-01T11:45:21;35.53;;;5.82;;
44774;SDS011;31340;51.402;0.016;2023-01-01T11:47:54;46.92;;;6.18;;
44774;SDS011;31340;51.402;0.016;2023-01-01T11:50:37;45.75;;;7.20;;
44774;SDS011;31340;51.402;0.016;2023-01-01T11:55:54;40.08;;;6.05;;
44774;SDS011;31340;51.402;0.016;2023-01-01T11:58:42;41.90;;;5.78;;
44774;SDS011;31340;51.402;0.016;2023-01-01T12:06:29;35.55;;;5.63;;
44774;SDS011;31340;51.402;0.016;2023-01-01T12:12:04;35.95;;;5.72;;
44774;SDS011;31340;51.402;0.016;2023-01-01T12:15:04;40.97;;;6.75;;
44774;SDS011;31340;51.402;0.016;2023-01-01T12:18:15;38.00;;;6.28;;
44774;SDS011;31340;51.402;0.016;2023-01-01T12:24:01;44.78;;;7.13;;
44774;SDS011;31340;51.402;0.016;2023-01-01T12:35:08;35.42;;;6.38;;
44774;SDS011;31340;51.402;0.016;2023-01-01T12:41:01;38.40;;;6.28;;
44774;SDS011;31340;51.402;0.016;2023-01-01T12:59:56;35.92;;;5.70;;
44774;SDS011;31340;51.402;0.016;2023-01-01T13:05:04;42.10;;;5.38;;
44774;SDS011;31340;51.402;0.016;2023-01-01T13:07:40;28.40;;;5.63;;
44774;SDS011;31340;51.402;0.016;2023-01-01T13:12:50;36.30;;;6.50;;
44774;SDS011;31340;51.402;0.016;2023-01-01T13:20:46;33.45;;;6.25;;
44774;SDS011;31340;51.402;0.016;2023-01-01T13:39:51;36.17;;;5.07;;
44774;SDS011;31340;51.402;0.016;2023-01-01T13:51:15;39.85;;;6.07;;
44774;SDS011;31340;51.402;0.016;2023-01-01T14:02:17;42.88;;;5.57;;
44774;SDS011;31340;51.402;0.016;2023-01-01T14:04:51;45.75;;;6.28;;
44774;SDS011;31340;51.402;0.016;2023-01-01T14:07:32;40.22;;;6.85;;
44774;SDS011;31340;51.402;0.016;2023-01-01T14:13:00;36.10;;;5.68;;
44774;SDS011;31340;51.402;0.016;2023-01-01T14:18:00;41.80;;;5.05;;
44774;SDS011;31340;51.402;0.016;2023-01-01T14:20:32;40.05;;;6.88;;
44774;SDS011;31340;51.402;0.016;2023-01-01T14:26:12;42.20;;;6.50;;
44774;SDS011;31340;51.402;0.016;2023-01-01T14:28:42;32.33;;;5.43;;
44774;SDS011;31340;51.402;0.016;2023-01-01T14:31:11;39.20;;;5.57;;
44774;SDS011;31340;51.402;0.016;2023-01-01T14:33:45;48.28;;;6.10;;
44774;SDS011;31340;51.402;0.016;2023-01-01T14:38:53;35.10;;;6.97;;
44774;SDS011;31340;51.402;0.016;2023-01-01T14:41:35;45.75;;;6.72;;
44774;SDS011;31340;51.402;0.016;2023-01-01T14:44:06;37.67;;;5.10;;
44774;SDS011;31340;51.402;0.016;2023-01-01T14:46:38;37.75;;;6.25;;
44774;SDS011;31340;51.402;0.016;2023-01-01T14:49:24;42.20;;;6.18;;
44774;SDS011;31340;51.402;0.016;2023-01-01T14:51:56;42.38;;;5.65;;
44774;SDS011;31340;51.402;0.016;2023-01-01T14:55:02;43.92;;;6.13;;
44774;SDS011;31340;51.402;0.016;2023-01-01T14:57:31;46.38;;;7.53;;
44774;SDS011;31340;51.402;0.016;2023-01-01T15:00:02;45.80;;;6.28;;
44774;SDS011;31340;51.402;0.016;2023-01-01T15:02:50;42.47;;;5.95;;
44774;SDS011;31340;51.402;0.016;2023-01-01T15:07:59;35.33;;;5.18;;
44774;SDS011;31340;51.402;0.016;2023-01-01T15:10:28;44.20;;;6.28;;
44774;SDS011;31340;51.402;0.016;2023-01-01T15:12:57;41.78;;;5.53;;
44774;SDS011;31340;51.402;0.016;2023-01-01T15:21:03;37.78;;;5.75;;
44774;SDS011;31340;51.402;0.016;2023-01-01T15:23:36;42.53;;;6.22;;
44774;SDS011;31340;51.402;0.016;2023-01-01T15:26:09;42.55;;;7.40;;
44774;SDS011;31340;51.402;0.016;2023-01-01T15:28:49;29.42;;;5.18;;
44774;SDS011;31340;51.402;0.016;2023-01-01T15:31:17;42.85;;;7.05;;
44774;SDS011;31340;51.402;0.016;2023-01-01T15:33:47;43.63;;;6.18;;
44774;SDS011;31340;51.402;0.016;2023-01-01T15:36:15;33.13;;;6.72;;
44774;SDS011;31340;51.402;0.016;2023-01-01T15:38:49;43.60;;;6.07;;
44774;SDS011;31340;51.402;0.016;2023-01-01T15:41:32;47.47;;;7.15;;
44774;SDS011;31340;51.402;0.016;2023-01-01T15:44:16;37.78;;;5.95;;
44774;SDS011;31340;51.402;0.016;2023-01-01T15:46:47;37.20;;;7.10;;
44774;SDS011;31340;51.402;0.016;2023-01-01T15:49:27;47.55;;;7.63;;
44774;SDS011;31340;51.402;0.016;2023-01-01T15:51:56;36.00;;;5.65;;
44774;SDS011;31340;51.402;0.016;2023-01-01T15:54:43;42.72;;;6.88;;
44774;SDS011;31340;51.402;0.016;2023-01-01T15:57:15;38.38;;;7.50;;
44774;SDS011;31340;51.402;0.016;2023-01-01T15:59:45;33.13;;;6.13;;
44774;SDS011;31340;51.402;0.016;2023-01-01T16:02:23;28.38;;;5.55;;
44774;SDS011;31340;51.402;0.016;2023-01-01T16:04:56;35.88;;;6.68;;
44774;SDS011;31340;51.402;0.016;2023-01-01T16:07:24;31.52;;;5.95;;
44774;SDS011;31340;51.402;0.016;2023-01-01T16:09:53;24.63;;;4.80;;
44774;SDS011;31340;51.402;0.016;2023-01-01T16:12:24;28.02;;;5.53;;
44774;SDS011;31340;51.402;0.016;2023-01-01T16:14:51;23.48;;;5.40;;
44774;SDS011;31340;51.402;0.016;2023-01-01T16:17:20;18.73;;;4.75;;
44774;SDS011;31340;51.402;0.016;2023-01-01T16:19:47;29.75;;;3.92;;
44774;SDS011;31340;51.402;0.016;2023-01-01T16:22:17;21.38;;;4.82;;
44774;SDS011;31340;51.402;0.016;2023-01-01T16:24:46;21.23;;;4.60;;
44774;SDS011;31340;51.402;0.016;2023-01-01T16:27:14;24.80;;;5.53;;
44774;SDS011;31340;51.402;0.016;2023-01-01T16:29:42;31.35;;;5.40;;
44774;SDS011;31340;51.402;0.016;2023-01-01T16:32:18;34.03;;;6.30;;
44774;SDS011;31340;51.402;0.016;2023-01-01T16:34:46;23.17;;;5.78;;
44774;SDS011;31340;51.402;0.016;2023-01-01T16:37:15;20.02;;;5.68;;
44774;SDS011;31340;51.402;0.016;2023-01-01T16:39:50;33.70;;;8.90;;
44774;SDS011;31340;51.402;0.016;2023-01-01T16:42:18;38.65;;;6.47;;
44774;SDS011;31340;51.402;0.016;2023-01-01T16:44:45;27.25;;;5.80;;
44774;SDS011;31340;51.402;0.016;2023-01-01T16:47:13;22.30;;;4.95;;
44774;SDS011;31340;51.402;0.016;2023-01-01T16:49:41;31.65;;;6.80;;
44774;SDS011;31340;51.402;0.016;2023-01-01T16:52:10;22.88;;;5.03;;
44774;SDS011;31340;51.402;0.016;2023-01-01T16:54:37;29.00;;;4.85;;
44774;SDS011;31340;51.402;0.016;2023-01-01T16:57:06;25.27;;;4.43;;
44774;SDS011;31340;51.402;0.016;2023-01-01T16:59:33;34.00;;;7.43;;
44774;SDS011;31340;51.402;0.016;2023-01-01T17:02:01;31.38;;;5.50;;
44774;SDS011;31340;51.402;0.016;2023-01-01T17:04:29;29.10;;;5.90;;
44774;SDS011;31340;51.402;0.016;2023-01-01T17:06:57;31.75;;;6.45;;
44774;SDS011;31340;51.402;0.016;2023-01-01T17:09:25;30.02;;;6.18;;
44774;SDS011;31340;51.402;0.016;2023-01-01T17:11:52;25.33;;;5.35;;
44774;SDS011;31340;51.402;0.016;2023-01-01T17:14:20;30.10;;;5.25;;
44774;SDS011;31340;51.402;0.016;2023-01-01T17:16:47;25.83;;;5.45;;
44774;SDS011;31340;51.402;0.016;2023-01-01T17:19:17;28.00;;;6.17;;
44774;SDS011;31340;51.402;0.016;2023-01-01T17:21:45;30.13;;;7.60;;
44774;SDS011;31340;51.402;0.016;2023-01-01T17:24:17;32.50;;;6.60;;
44774;SDS011;31340;51.402;0.016;2023-01-01T17:26:49;22.92;;;5.70;;
44774;SDS011;31340;51.402;0.016;2023-01-01T17:29:20;32.42;;;6.18;;
44774;SDS011;31340;51.402;0.016;2023-01-01T17:31:49;27.92;;;6.45;;
44774;SDS011;31340;51.402;0.016;2023-01-01T17:34:18;30.58;;;5.88;;
44774;SDS011;31340;51.402;0.016;2023-01-01T17:36:46;29.52;;;5.40;;
44774;SDS011;31340;51.402;0.016;2023-01-01T17:39:15;26.15;;;6.32;;
44774;SDS011;31340;51.402;0.016;2023-01-01T17:41:43;30.17;;;5.65;;
44774;SDS011;31340;51.402;0.016;2023-01-01T17:44:11;25.35;;;4.93;;
44774;SDS011;31340;51.402;0.016;2023-01-01T17:46:39;20.67;;;4.90;;
44774;SDS011;31340;51.402;0.016;2023-01-01T17:49:08;33.70;;;7.30;;
44774;SDS011;31340;51.402;0.016;2023-01-01T17:51:36;28.77;;;5.75;;
44774;SDS011;31340;51.402;0.016;2023-01-01T17:54:05;33.42;;;6.60;;
44774;SDS011;31340;51.402;0.016;2023-01-01T17:56:37;37.05;;;6.57;;
44774;SDS011;31340;51.402;0.016;2023-01-01T17:59:05;34.05;;;6.90;;
44774;SDS011;31340;51.402;0.016;2023-01-01T18:01:34;32.95;;;5.95;;
44774;SDS011;31340;51.402;0.016;2023-01-01T18:04:03;24.48;;;4.90;;
44774;SDS011;31340;51.402;0.016;2023-01-01T18:06:32;30.60;;;5.57;;
44774;SDS011;31340;51.402;0.016;2023-01-01T18:09:09;33.80;;;6.50;;